KAMG/AMG METAR and TAF weather

Enter ICAO airport designator
Station Type Date Time Source
KAMG METAR 2018/10/16 13:53 UTC NOAA

KAMG 161353Z AUTO 20005KT 10SM CLR 27/23 A3015 RMK AO2 SLP208 T02670233


Station Type Date Time Source
KAMG Decoded METAR 2018/10/16 13:53 UTC NOAA

ALMA BACON COUNTY AIRPORT, GA, United States (KAMG) 31-32N 82-30W 59M
Oct 16, 2018 - 09:53 AM EDT / 2018.10.16 1353 UTC
Wind: from the SSW (200 degrees) at 6 MPH (5 KT):0
Visibility: 10 mile(s):0
Sky conditions: clear
Temperature: 80.1 F (26.7 C)
Dew Point: 73.9 F (23.3 C)
Relative Humidity: 81%
Pressure (altimeter): 30.15 in. Hg (1020 hPa)
ob: KAMG 161353Z AUTO 20005KT 10SM CLR 27/23 A3015 RMK AO2 SLP208 T02670233
cycle: 14

Station Type Date Time Source
KAMG TAF UTC NOAA

Error!


Example: see airport list